createdAt,value
2023-05-10T00:00:13.566Z,999.66
2023-05-10T00:01:13.526Z,999.64
2023-05-10T00:02:13.759Z,999.62
2023-05-10T00:03:13.551Z,999.62
2023-05-10T00:04:13.616Z,999.63
2023-05-10T00:05:13.416Z,999.63
2023-05-10T00:06:14.851Z,999.63
2023-05-10T00:07:13.361Z,999.64
2023-05-10T00:08:13.351Z,999.61
2023-05-10T00:09:13.362Z,999.59
2023-05-10T00:10:13.552Z,999.60
2023-05-10T00:11:13.358Z,999.62
2023-05-10T00:12:13.265Z,999.61
2023-05-10T00:13:13.366Z,999.57
2023-05-10T00:14:13.299Z,999.58
2023-05-10T00:15:13.222Z,999.57
2023-05-10T00:16:13.328Z,999.56
2023-05-10T00:17:13.265Z,999.56
2023-05-10T00:18:13.223Z,999.59
2023-05-10T00:19:13.313Z,999.58
2023-05-10T00:20:13.232Z,999.57
2023-05-10T00:21:13.243Z,999.55
2023-05-10T00:22:13.253Z,999.53
2023-05-10T00:23:13.132Z,999.55
2023-05-10T00:24:13.150Z,999.51
2023-05-10T00:25:13.251Z,999.57
2023-05-10T00:26:13.126Z,999.52
2023-05-10T00:27:13.192Z,999.50
2023-05-10T00:28:13.087Z,999.52
2023-05-10T00:29:13.142Z,999.53
2023-05-10T00:30:13.229Z,999.50
2023-05-10T00:31:13.066Z,999.50
2023-05-10T00:32:13.193Z,999.45
2023-05-10T00:33:13.037Z,999.49
2023-05-10T00:34:13.134Z,999.52
2023-05-10T00:35:13.055Z,999.44
2023-05-10T00:36:13.086Z,999.44
2023-05-10T00:37:13.001Z,999.46
2023-05-10T00:38:12.996Z,999.43
2023-05-10T00:39:12.975Z,999.47
2023-05-10T00:40:13.045Z,999.47
2023-05-10T00:41:13.012Z,999.42
2023-05-10T00:42:13.087Z,999.41
2023-05-10T00:43:12.948Z,999.41
2023-05-10T00:44:12.960Z,999.43
2023-05-10T00:45:13.026Z,999.43
2023-05-10T00:46:13.022Z,999.39
2023-05-10T00:47:12.966Z,999.46
2023-05-10T00:48:12.901Z,999.46
2023-05-10T00:49:12.877Z,999.46
2023-05-10T00:50:12.963Z,999.51
2023-05-10T00:51:14.940Z,999.49
2023-05-10T00:52:12.859Z,999.44
2023-05-10T00:53:12.865Z,999.46
2023-05-10T00:54:12.842Z,999.49
2023-05-10T00:55:33.804Z,999.48
2023-05-10T00:56:12.812Z,999.52
2023-05-10T00:57:12.815Z,999.55
2023-05-10T00:58:12.919Z,999.53
2023-05-10T00:59:12.766Z,999.53
2023-05-10T01:00:12.825Z,999.55
2023-05-10T01:01:12.837Z,999.56
2023-05-10T01:02:12.796Z,999.56
2023-05-10T01:03:12.840Z,999.57
2023-05-10T01:04:12.745Z,999.56
2023-05-10T01:05:12.748Z,999.55
2023-05-10T01:06:13.289Z,999.59
2023-05-10T01:07:12.697Z,999.55
2023-05-10T01:08:12.653Z,999.57
2023-05-10T01:09:12.781Z,999.51
2023-05-10T01:10:12.739Z,999.51
2023-05-10T01:11:12.727Z,999.58
2023-05-10T01:12:12.673Z,999.57
2023-05-10T01:13:12.732Z,999.54
2023-05-10T01:14:12.695Z,999.60
2023-05-10T01:15:12.652Z,999.58
2023-05-10T01:16:12.640Z,999.54
2023-05-10T01:17:13.620Z,999.55
2023-05-10T01:18:12.567Z,999.61
2023-05-10T01:19:12.649Z,999.60
2023-05-10T01:20:12.510Z,999.62
2023-05-10T01:21:12.660Z,999.57
2023-05-10T01:22:12.576Z,999.62
2023-05-10T01:23:12.586Z,999.60
2023-05-10T01:24:12.566Z,999.58
2023-05-10T01:25:12.517Z,999.58
2023-05-10T01:26:12.465Z,999.59
2023-05-10T01:27:12.442Z,999.60
2023-05-10T01:28:12.452Z,999.63
2023-05-10T01:29:12.465Z,999.67
2023-05-10T01:30:15.934Z,999.65
2023-05-10T01:31:12.481Z,999.63
2023-05-10T01:32:12.420Z,999.68
2023-05-10T01:33:12.438Z,999.70
2023-05-10T01:34:12.433Z,999.72
2023-05-10T01:35:12.406Z,999.71
2023-05-10T01:36:12.398Z,999.75
2023-05-10T01:37:12.367Z,999.77
2023-05-10T01:38:12.323Z,999.81
2023-05-10T01:39:12.594Z,999.75
2023-05-10T01:40:12.493Z,999.77
2023-05-10T01:41:12.393Z,999.81
2023-05-10T01:42:12.409Z,999.84
2023-05-10T01:43:12.291Z,999.86
2023-05-10T01:44:13.141Z,999.83
2023-05-10T01:45:12.262Z,999.85
2023-05-10T01:46:12.366Z,999.82
2023-05-10T01:47:12.252Z,999.87
2023-05-10T01:48:13.715Z,999.82
2023-05-10T01:49:12.277Z,999.88
2023-05-10T01:50:12.346Z,999.87
2023-05-10T01:51:12.241Z,999.87
2023-05-10T01:52:12.227Z,999.90
2023-05-10T01:53:12.270Z,999.90
2023-05-10T01:54:12.237Z,999.87
2023-05-10T01:55:12.272Z,999.90
2023-05-10T01:56:12.193Z,999.90
2023-05-10T01:57:12.183Z,999.89
2023-05-10T01:58:12.180Z,999.90
2023-05-10T01:59:12.197Z,999.88
2023-05-10T02:00:12.126Z,999.92
2023-05-10T02:01:12.182Z,999.90
2023-05-10T02:02:12.177Z,999.92
2023-05-10T02:03:12.208Z,999.91
2023-05-10T02:04:12.166Z,999.91
2023-05-10T02:05:12.128Z,999.94
2023-05-10T02:06:12.060Z,999.95
2023-05-10T02:07:12.170Z,999.95
2023-05-10T02:08:12.080Z,999.96
2023-05-10T02:09:12.097Z,1000.00
2023-05-10T02:10:12.127Z,999.97
2023-05-10T02:11:11.973Z,1000.04
2023-05-10T02:12:12.047Z,1000.05
2023-05-10T02:13:12.005Z,1000.05
2023-05-10T02:14:13.448Z,1000.09
2023-05-10T02:15:12.022Z,1000.13
2023-05-10T02:16:12.060Z,1000.08
2023-05-10T02:17:11.967Z,1000.12
2023-05-10T02:18:11.962Z,1000.14
2023-05-10T02:19:11.979Z,1000.12
2023-05-10T02:20:11.964Z,1000.16
2023-05-10T02:21:11.889Z,1000.15
2023-05-10T02:22:11.920Z,1000.16
2023-05-10T02:23:11.886Z,1000.16
2023-05-10T02:24:11.839Z,1000.13
2023-05-10T02:25:13.367Z,1000.12
2023-05-10T02:26:33.050Z,1000.22
2023-05-10T02:27:11.905Z,1000.16
2023-05-10T02:28:11.844Z,1000.15
2023-05-10T02:29:11.861Z,1000.18
2023-05-10T02:30:11.825Z,1000.15
2023-05-10T02:31:11.897Z,1000.16
2023-05-10T02:32:11.893Z,1000.19
2023-05-10T02:33:11.755Z,1000.19
2023-05-10T02:34:11.724Z,1000.24
2023-05-10T02:35:11.828Z,1000.20
2023-05-10T02:36:11.740Z,1000.16
2023-05-10T02:37:11.737Z,1000.21
2023-05-10T02:38:11.684Z,1000.16
2023-05-10T02:39:11.677Z,1000.19
2023-05-10T02:40:11.690Z,1000.20
2023-05-10T02:41:11.646Z,1000.20
2023-05-10T02:42:11.721Z,1000.24
2023-05-10T02:43:11.652Z,1000.21
2023-05-10T02:44:11.670Z,1000.21
2023-05-10T02:45:11.624Z,1000.21
2023-05-10T02:46:11.689Z,1000.21
2023-05-10T02:47:12.000Z,1000.18
2023-05-10T02:48:11.643Z,1000.15
2023-05-10T02:49:11.628Z,1000.19
2023-05-10T02:50:11.680Z,1000.24
2023-05-10T02:51:11.688Z,1000.19
2023-05-10T02:52:11.509Z,1000.18
2023-05-10T02:53:11.571Z,1000.23
2023-05-10T02:54:11.590Z,1000.25
2023-05-10T02:55:11.520Z,1000.23
2023-05-10T02:56:11.485Z,1000.27
2023-05-10T02:57:11.505Z,1000.20
2023-05-10T02:58:11.492Z,1000.20
2023-05-10T02:59:11.456Z,1000.14
2023-05-10T03:00:11.500Z,1000.18
2023-05-10T03:01:11.469Z,1000.17
2023-05-10T03:02:11.449Z,1000.20
2023-05-10T03:03:11.418Z,1000.19
2023-05-10T03:04:11.497Z,1000.23
2023-05-10T03:05:11.395Z,1000.17
2023-05-10T03:06:12.854Z,1000.18
2023-05-10T03:07:11.422Z,1000.17
2023-05-10T03:08:11.419Z,1000.19
2023-05-10T03:09:11.386Z,1000.25
2023-05-10T03:10:11.354Z,1000.21
2023-05-10T03:11:11.360Z,1000.19
2023-05-10T03:12:11.357Z,1000.20
2023-05-10T03:13:11.454Z,1000.26
2023-05-10T03:14:11.356Z,1000.27
2023-05-10T03:15:11.336Z,1000.27
2023-05-10T03:16:11.354Z,1000.30
2023-05-10T03:17:11.328Z,1000.31
2023-05-10T03:18:11.315Z,1000.30
2023-05-10T03:19:11.266Z,1000.31
2023-05-10T03:20:11.268Z,1000.30
2023-05-10T03:21:11.271Z,1000.34
2023-05-10T03:22:11.298Z,1000.35
2023-05-10T03:23:11.243Z,1000.35
2023-05-10T03:24:11.227Z,1000.36
2023-05-10T03:25:11.516Z,1000.36
2023-05-10T03:42:24.202Z,1000.41
2023-05-10T03:43:20.811Z,1000.44
2023-05-10T03:44:20.812Z,1000.43
2023-05-10T03:45:20.780Z,1000.42
2023-05-10T03:46:21.128Z,1000.44
2023-05-10T03:47:20.774Z,1000.52
2023-05-10T03:48:20.768Z,1000.46
2023-05-10T03:49:20.806Z,1000.50
2023-05-10T03:50:20.773Z,1000.53
2023-05-10T03:51:20.770Z,1000.57
2023-05-10T03:52:20.727Z,1000.60
2023-05-10T03:53:20.733Z,1000.62
2023-05-10T03:54:20.695Z,1000.66
2023-05-10T03:55:20.690Z,1000.63
2023-05-10T03:56:20.678Z,1000.67
2023-05-10T03:57:22.120Z,1000.67
2023-05-10T03:58:20.665Z,1000.68
2023-05-10T03:59:20.752Z,1000.63
2023-05-10T04:00:20.662Z,1000.65
2023-05-10T04:01:20.696Z,1000.64
2023-05-10T04:02:20.745Z,1000.66
2023-05-10T04:03:20.759Z,1000.70
2023-05-10T04:04:22.060Z,1000.71
2023-05-10T04:05:20.627Z,1000.71
2023-05-10T04:06:20.709Z,1000.71
2023-05-10T04:07:20.554Z,1000.71
2023-05-10T04:08:20.584Z,1000.73
2023-05-10T04:09:20.567Z,1000.72
2023-05-10T04:10:20.591Z,1000.70
2023-05-10T04:11:20.539Z,1000.72
2023-05-10T04:12:20.582Z,1000.71
2023-05-10T04:13:20.619Z,1000.78
2023-05-10T04:14:20.520Z,1000.75
2023-05-10T04:15:20.503Z,1000.68
2023-05-10T04:16:20.657Z,1000.76
2023-05-10T04:17:20.511Z,1000.75
2023-05-10T04:18:20.480Z,1000.72
2023-05-10T04:19:20.476Z,1000.71
2023-05-10T04:20:20.447Z,1000.70
2023-05-10T04:21:20.430Z,1000.69
2023-05-10T04:22:20.489Z,1000.66
2023-05-10T04:23:20.428Z,1000.66
2023-05-10T04:24:20.448Z,1000.66
2023-05-10T04:25:20.405Z,1000.67
2023-05-10T04:26:20.444Z,1000.64
2023-05-10T04:27:20.643Z,1000.62
2023-05-10T04:28:20.385Z,1000.64
2023-05-10T04:29:20.383Z,1000.64
2023-05-10T04:30:20.391Z,1000.65
2023-05-10T04:31:41.334Z,1000.70
2023-05-10T04:32:30.331Z,1000.69
2023-05-10T04:33:20.303Z,1000.71
2023-05-10T04:34:20.291Z,1000.75
2023-05-10T04:35:20.294Z,1000.70
2023-05-10T04:36:20.226Z,1000.71
2023-05-10T04:37:20.266Z,1000.72
2023-05-10T04:38:21.693Z,1000.71
2023-05-10T04:39:20.217Z,1000.73
2023-05-10T04:40:20.193Z,1000.73
2023-05-10T04:41:20.207Z,1000.72
2023-05-10T04:42:20.216Z,1000.75
2023-05-10T04:43:20.176Z,1000.80
2023-05-10T04:44:20.166Z,1000.77
2023-05-10T04:45:20.162Z,1000.81
2023-05-10T04:46:20.186Z,1000.78
2023-05-10T04:47:20.170Z,1000.81
2023-05-10T04:48:20.126Z,1000.83
2023-05-10T04:49:20.109Z,1000.82
2023-05-10T04:50:20.117Z,1000.83
2023-05-10T04:51:20.120Z,1000.86
2023-05-10T04:52:20.090Z,1000.84
2023-05-10T04:53:21.527Z,1000.85
2023-05-10T04:54:20.051Z,1000.85
2023-05-10T04:55:20.042Z,1000.84
2023-05-10T04:56:20.066Z,1000.87
2023-05-10T04:57:21.320Z,1000.87
2023-05-10T04:58:20.027Z,1000.87
2023-05-10T04:59:19.989Z,1000.91
2023-05-10T05:00:19.993Z,1000.92
2023-05-10T05:01:20.019Z,1000.94
2023-05-10T05:02:20.073Z,1000.92
2023-05-10T05:03:20.064Z,1000.95
2023-05-10T05:04:19.970Z,1000.94
2023-05-10T05:05:19.978Z,1000.94
2023-05-10T05:06:19.980Z,1000.93
2023-05-10T05:07:19.940Z,1000.96
2023-05-10T05:08:19.922Z,1000.93
2023-05-10T05:09:19.926Z,1000.95
2023-05-10T05:10:20.054Z,1000.97
2023-05-10T05:11:20.011Z,1000.95
2023-05-10T05:12:19.887Z,1000.93
2023-05-10T05:13:19.932Z,1000.96
2023-05-10T05:14:19.858Z,1000.96
2023-05-10T05:15:19.837Z,1001.01
2023-05-10T05:16:19.851Z,1001.03
2023-05-10T05:17:19.811Z,1001.05
2023-05-10T05:18:19.822Z,1001.10
2023-05-10T05:19:19.805Z,1001.06
2023-05-10T05:20:19.899Z,1001.09
2023-05-10T05:21:19.779Z,1001.10
2023-05-10T05:22:19.810Z,1001.11
2023-05-10T05:23:19.763Z,1001.09
2023-05-10T05:24:20.089Z,1001.08
2023-05-10T05:25:19.753Z,1001.09
2023-05-10T05:26:19.730Z,1001.10
2023-05-10T05:27:19.704Z,1001.09
2023-05-10T05:28:19.704Z,1001.10
2023-05-10T05:29:19.750Z,1001.09
2023-05-10T05:30:19.671Z,1001.09
2023-05-10T05:31:19.690Z,1001.13
2023-05-10T05:32:19.692Z,1001.11
2023-05-10T07:06:01.948Z,1001.73
2023-05-10T07:06:41.789Z,1001.73
2023-05-10T07:07:40.946Z,1001.74
2023-05-10T07:08:40.926Z,1001.75
2023-05-10T07:09:40.883Z,1001.72
2023-05-10T07:10:41.210Z,1001.75
2023-05-10T07:11:40.866Z,1001.77
2023-05-10T07:12:40.865Z,1001.80
2023-05-10T07:13:40.890Z,1001.76
2023-05-10T07:14:40.855Z,1001.81
2023-05-10T07:15:40.822Z,1001.78
2023-05-10T07:16:40.975Z,1001.83
2023-05-10T07:17:43.143Z,1001.85
2023-05-10T07:18:40.834Z,1001.86
2023-05-10T07:19:40.740Z,1001.86
2023-05-10T07:20:40.732Z,1001.88
2023-05-10T07:21:40.713Z,1001.84
2023-05-10T07:22:40.697Z,1001.94
2023-05-10T07:23:42.473Z,1001.93
2023-05-10T07:24:40.683Z,1001.92
2023-05-10T07:25:40.753Z,1001.89
2023-05-10T07:26:40.740Z,1001.91
2023-05-10T07:27:40.652Z,1001.96
2023-05-10T07:28:40.640Z,1001.90
2023-05-10T07:29:40.643Z,1001.95
2023-05-10T07:30:40.668Z,1001.93
2023-05-10T07:31:40.685Z,1001.95
2023-05-10T07:32:40.774Z,1001.96
2023-05-10T07:33:40.712Z,1001.95
2023-05-10T07:34:40.688Z,1001.95
2023-05-10T08:43:50.812Z,1002.13
2023-05-10T08:44:49.692Z,1002.10
2023-05-10T08:45:49.134Z,1002.13
2023-05-10T08:46:49.207Z,1002.14
2023-05-10T08:47:49.240Z,1002.12
2023-05-10T08:48:49.121Z,1002.11
2023-05-10T08:49:49.220Z,1002.10
2023-05-10T08:50:49.111Z,1002.11
2023-05-10T08:51:50.560Z,1002.15
2023-05-10T08:52:49.114Z,1002.18
2023-05-10T08:53:49.089Z,1002.13
2023-05-10T08:54:49.147Z,1002.15
2023-05-10T08:55:49.023Z,1002.21
2023-05-10T08:56:49.925Z,1002.19
2023-05-10T08:57:49.844Z,1002.24
2023-05-10T08:58:48.915Z,1002.21
2023-05-10T08:59:48.967Z,1002.26
2023-05-10T09:00:48.995Z,1002.23
2023-05-10T09:01:48.877Z,1002.28
2023-05-10T09:02:48.899Z,1002.27
2023-05-10T09:03:48.939Z,1002.32
2023-05-10T09:04:48.913Z,1002.30
2023-05-10T09:05:48.880Z,1002.34
2023-05-10T09:06:49.033Z,1002.35
2023-05-10T09:07:48.842Z,1002.35
2023-05-10T09:08:48.907Z,1002.37
2023-05-10T09:09:48.812Z,1002.36
2023-05-10T09:10:48.823Z,1002.37
2023-05-10T09:11:48.829Z,1002.36
2023-05-10T09:12:48.970Z,1002.36
2023-05-10T09:13:48.856Z,1002.40
2023-05-10T09:14:48.786Z,1002.47
2023-05-10T09:15:48.768Z,1002.38
2023-05-10T09:16:48.813Z,1002.41
2023-05-10T09:17:48.764Z,1002.45
2023-05-10T09:18:48.816Z,1002.47
2023-05-10T09:19:48.764Z,1002.50
2023-05-10T09:20:48.787Z,1002.47
2023-05-10T09:21:48.742Z,1002.51
2023-05-10T09:22:48.772Z,1002.48
2023-05-10T09:23:48.921Z,1002.48
2023-05-10T09:24:48.639Z,1002.50
2023-05-10T09:25:48.634Z,1002.48
2023-05-10T09:26:48.697Z,1002.44
2023-05-10T09:27:48.681Z,1002.48
2023-05-10T09:28:48.612Z,1002.50
2023-05-10T09:29:48.643Z,1002.51
2023-05-10T09:30:48.596Z,1002.57
2023-05-10T09:31:48.749Z,1002.53
2023-05-10T09:32:48.599Z,1002.51
2023-05-10T09:33:48.583Z,1002.60
2023-05-10T09:34:50.031Z,1002.57
2023-05-10T09:35:48.565Z,1002.55
2023-05-10T09:36:48.629Z,1002.53
2023-05-10T09:37:48.551Z,1002.49
2023-05-10T09:38:48.529Z,1002.56
2023-05-10T09:39:48.479Z,1002.54
2023-05-10T09:40:48.494Z,1002.53
2023-05-10T09:41:48.498Z,1002.54
2023-05-10T09:42:48.455Z,1002.56
2023-05-10T09:43:48.472Z,1002.53
2023-05-10T09:44:48.394Z,1002.52
2023-05-10T09:45:48.416Z,1002.55
2023-05-10T09:46:48.517Z,1002.53
2023-05-10T09:47:48.492Z,1002.54
2023-05-10T09:48:50.218Z,1002.59
2023-05-10T09:49:48.331Z,1002.60
2023-05-10T09:50:58.374Z,1002.55
2023-05-10T09:51:48.370Z,1002.64
2023-05-10T09:52:48.362Z,1002.56
2023-05-10T09:53:48.324Z,1002.63
2023-05-10T09:54:48.286Z,1002.58
2023-05-10T09:55:48.290Z,1002.57
2023-05-10T09:56:48.314Z,1002.66
2023-05-10T09:57:48.353Z,1002.60
2023-05-10T09:58:48.264Z,1002.55
2023-05-10T09:59:48.327Z,1002.56
2023-05-10T10:00:48.318Z,1002.55
2023-05-10T10:01:48.290Z,1002.62
2023-05-10T10:02:48.295Z,1002.65
2023-05-10T10:03:48.410Z,1002.61
2023-05-10T10:04:49.712Z,1002.63
2023-05-10T10:05:48.284Z,1002.64
2023-05-10T10:06:48.237Z,1002.61
2023-05-10T10:07:48.253Z,1002.63
2023-05-10T10:08:48.267Z,1002.63
2023-05-10T10:09:48.288Z,1002.65
2023-05-10T10:10:48.387Z,1002.60
2023-05-10T10:11:48.495Z,1002.65
2023-05-10T10:12:48.592Z,1002.64
2023-05-10T10:13:48.328Z,1002.64
2023-05-10T10:14:48.219Z,1002.60
2023-05-10T10:15:48.288Z,1002.66
2023-05-10T10:17:05.030Z,1002.68
2023-05-10T10:17:49.142Z,1002.65
2023-05-10T10:18:48.121Z,1002.63
2023-05-10T10:19:48.469Z,1002.67
2023-05-10T10:20:48.223Z,1002.67
2023-05-10T10:21:48.157Z,1002.65
2023-05-10T10:22:48.155Z,1002.63
2023-05-10T10:23:48.118Z,1002.63
2023-05-10T10:24:48.074Z,1002.69
2023-05-10T10:25:48.189Z,1002.67
2023-05-10T10:26:49.457Z,1002.69
2023-05-10T10:27:48.166Z,1002.70
2023-05-10T10:28:47.966Z,1002.72
2023-05-10T10:29:48.086Z,1002.70
2023-05-10T10:30:48.024Z,1002.64
2023-05-10T10:31:49.222Z,1002.73
2023-05-10T10:32:48.772Z,1002.68
2023-05-10T10:33:48.442Z,1002.69
2023-05-10T10:34:48.035Z,1002.72
2023-05-10T10:35:47.911Z,1002.73
2023-05-10T10:36:48.376Z,1002.65
2023-05-10T10:37:48.060Z,1002.68
2023-05-10T10:38:47.937Z,1002.66
2023-05-10T10:39:47.864Z,1002.68
2023-05-10T10:40:47.986Z,1002.62
2023-05-10T10:41:47.965Z,1002.69
2023-05-10T10:42:48.956Z,1002.73
2023-05-10T10:43:48.116Z,1002.67
2023-05-10T10:44:47.806Z,1002.71
2023-05-10T10:45:47.814Z,1002.71
2023-05-10T10:46:47.853Z,1002.72
2023-05-10T10:47:47.868Z,1002.70
2023-05-10T10:48:47.870Z,1002.67
2023-05-10T10:49:47.878Z,1002.68
2023-05-10T10:50:49.196Z,1002.70
2023-05-10T10:51:47.858Z,1002.70
2023-05-10T10:52:47.690Z,1002.76
2023-05-10T10:53:47.759Z,1002.79
2023-05-10T10:54:47.764Z,1002.78
2023-05-10T10:55:47.814Z,1002.80
2023-05-10T10:56:47.804Z,1002.79
2023-05-10T10:57:47.696Z,1002.84
2023-05-10T10:58:47.684Z,1002.74
2023-05-10T10:59:47.652Z,1002.83
2023-05-10T11:00:47.642Z,1002.79
2023-05-10T11:01:47.622Z,1002.77
2023-05-10T11:02:47.636Z,1002.80
2023-05-10T11:03:47.574Z,1002.86
2023-05-10T11:04:47.809Z,1002.92
2023-05-10T11:05:47.623Z,1002.90
2023-05-10T11:06:47.572Z,1002.87
2023-05-10T11:07:47.691Z,1002.86
2023-05-10T11:08:47.590Z,1002.91
2023-05-10T11:09:47.591Z,1002.93
2023-05-10T11:10:47.575Z,1002.92
2023-05-10T11:11:47.602Z,1002.88
2023-05-10T11:12:47.573Z,1002.89
2023-05-10T11:13:49.286Z,1002.91
2023-05-10T11:14:47.585Z,1002.93
2023-05-10T11:15:47.504Z,1002.95
2023-05-10T11:16:47.563Z,1002.98
2023-05-10T11:17:47.588Z,1002.98
2023-05-10T11:18:49.156Z,1002.92
2023-05-10T11:19:47.509Z,1002.97
2023-05-10T11:20:47.478Z,1002.95
2023-05-10T11:21:47.390Z,1002.92
2023-05-10T11:22:47.520Z,1002.97
2023-05-10T11:23:47.561Z,1002.95
2023-05-10T11:24:49.629Z,1002.97
2023-05-10T11:25:47.473Z,1002.95
2023-05-10T11:26:47.513Z,1002.99
2023-05-10T11:27:47.338Z,1002.96
2023-05-10T11:28:47.431Z,1002.95
2023-05-10T11:29:47.389Z,1002.95
2023-05-10T11:30:47.439Z,1002.94
2023-05-10T11:31:47.442Z,1002.99
2023-05-10T11:32:47.441Z,1003.03
2023-05-10T11:33:47.327Z,1003.05
2023-05-10T11:34:47.512Z,1003.10
2023-05-10T11:35:47.258Z,1003.08
2023-05-10T11:36:47.588Z,1003.06
2023-05-10T11:37:47.365Z,1003.09
2023-05-10T11:38:47.226Z,1003.10
2023-05-10T11:39:47.272Z,1003.06
2023-05-10T11:40:47.433Z,1003.12
2023-05-10T11:41:47.329Z,1003.12
2023-05-10T11:42:47.206Z,1003.12
2023-05-10T11:43:47.183Z,1003.12
2023-05-10T11:44:47.191Z,1003.16
2023-05-10T11:45:47.228Z,1003.17
2023-05-10T11:46:47.241Z,1003.16
2023-05-10T11:47:47.637Z,1003.12
2023-05-10T11:48:47.255Z,1003.08
2023-05-10T11:49:47.131Z,1003.10
2023-05-10T11:50:47.251Z,1003.08
2023-05-10T11:51:47.321Z,1003.08
2023-05-10T11:52:47.256Z,1003.19
2023-05-10T11:53:47.324Z,1003.04
2023-05-10T11:54:47.390Z,1003.10
2023-05-10T11:55:47.048Z,1003.16
2023-05-10T11:56:47.076Z,1003.13
2023-05-10T11:57:47.072Z,1003.11
2023-05-10T11:58:47.008Z,1003.16
2023-05-10T11:59:47.000Z,1003.12
2023-05-10T12:00:47.051Z,1003.10
2023-05-10T12:01:47.090Z,1003.13
2023-05-10T12:02:47.131Z,1003.12
2023-05-10T12:03:47.172Z,1003.13
2023-05-10T12:04:47.074Z,1003.12
2023-05-10T12:05:46.973Z,1003.19
2023-05-10T12:06:47.014Z,1003.13
2023-05-10T12:07:47.018Z,1003.13
2023-05-10T12:08:46.942Z,1003.18
2023-05-10T12:09:46.901Z,1003.19
2023-05-10T12:10:46.916Z,1003.18
2023-05-10T12:11:46.962Z,1003.23
2023-05-10T12:12:46.873Z,1003.27
2023-05-10T12:13:46.787Z,1003.18
2023-05-10T12:14:46.946Z,1003.22
2023-05-10T12:15:46.936Z,1003.22
2023-05-10T12:16:47.223Z,1003.21
2023-05-10T12:17:46.833Z,1003.24
2023-05-10T12:18:46.862Z,1003.23
2023-05-10T12:19:46.825Z,1003.24
2023-05-10T12:20:46.756Z,1003.29
2023-05-10T12:21:46.735Z,1003.27
2023-05-10T12:22:46.873Z,1003.25
2023-05-10T12:23:46.840Z,1003.23
2023-05-10T12:24:46.818Z,1003.23
2023-05-10T12:25:46.744Z,1003.25
2023-05-10T12:26:46.719Z,1003.25
2023-05-10T12:27:46.722Z,1003.29
2023-05-10T12:28:47.278Z,1003.28
2023-05-10T12:29:46.818Z,1003.32
2023-05-10T12:30:46.688Z,1003.29
2023-05-10T12:31:46.761Z,1003.34
2023-05-10T12:32:46.760Z,1003.28
2023-05-10T12:33:46.691Z,1003.27
2023-05-10T12:34:46.713Z,1003.31
2023-05-10T12:35:46.638Z,1003.28
2023-05-10T12:36:46.671Z,1003.32
2023-05-10T12:37:46.621Z,1003.33
2023-05-10T12:38:46.636Z,1003.30
2023-05-10T12:39:46.605Z,1003.36
2023-05-10T12:40:46.586Z,1003.31
2023-05-10T12:41:46.566Z,1003.34
2023-05-10T12:42:46.624Z,1003.32
2023-05-10T12:43:46.544Z,1003.29
2023-05-10T12:44:46.539Z,1003.31
2023-05-10T12:45:46.583Z,1003.32
2023-05-10T12:46:46.512Z,1003.31
2023-05-10T12:47:46.525Z,1003.28
2023-05-10T12:48:46.493Z,1003.30
2023-05-10T12:49:47.460Z,1003.35
2023-05-10T12:50:46.520Z,1003.28
2023-05-10T12:51:46.565Z,1003.31
2023-05-10T12:52:46.482Z,1003.33
2023-05-10T12:53:48.015Z,1003.35
2023-05-10T12:54:46.410Z,1003.43
2023-05-10T12:55:46.417Z,1003.41
2023-05-10T12:56:46.365Z,1003.42
2023-05-10T12:57:46.480Z,1003.34
2023-05-10T12:58:46.370Z,1003.35
2023-05-10T12:59:46.394Z,1003.34
2023-05-10T13:00:46.401Z,1003.36
2023-05-10T13:01:46.494Z,1003.34
2023-05-10T13:02:46.411Z,1003.44
2023-05-10T13:03:46.382Z,1003.36
2023-05-10T13:04:46.722Z,1003.36
2023-05-10T13:05:46.333Z,1003.41
2023-05-10T13:06:46.299Z,1003.38
2023-05-10T13:07:46.270Z,1003.34
2023-05-10T13:08:46.315Z,1003.36
2023-05-10T13:09:46.311Z,1003.35
2023-05-10T13:10:46.260Z,1003.41
2023-05-10T13:11:46.263Z,1003.45
2023-05-10T13:12:46.267Z,1003.43
2023-05-10T13:13:46.182Z,1003.39
2023-05-10T13:14:46.183Z,1003.44
2023-05-10T13:15:46.200Z,1003.45
2023-05-10T13:16:46.365Z,1003.46
2023-05-10T13:17:46.240Z,1003.44
2023-05-10T13:18:46.150Z,1003.56
2023-05-10T13:19:46.177Z,1003.50
2023-05-10T13:20:46.169Z,1003.52
2023-05-10T13:21:46.109Z,1003.49
2023-05-10T13:22:46.086Z,1003.52
2023-05-10T13:23:46.086Z,1003.46
2023-05-10T13:24:46.192Z,1003.41
2023-05-10T13:25:46.157Z,1003.46
2023-05-10T13:26:46.113Z,1003.41
2023-05-10T13:27:46.052Z,1003.48
2023-05-10T13:28:46.056Z,1003.46
2023-05-10T13:29:47.046Z,1003.48
2023-05-10T13:30:46.016Z,1003.43
2023-05-10T13:31:46.060Z,1003.44
2023-05-10T13:32:46.023Z,1003.42
2023-05-10T13:33:46.022Z,1003.46
2023-05-10T13:34:46.028Z,1003.48
2023-05-10T13:35:46.031Z,1003.47
2023-05-10T13:36:45.917Z,1003.49
2023-05-10T13:37:45.977Z,1003.54
2023-05-10T13:38:45.947Z,1003.56
2023-05-10T13:39:46.321Z,1003.49
2023-05-10T13:40:45.902Z,1003.48
2023-05-10T13:41:45.989Z,1003.48
2023-05-10T13:42:45.953Z,1003.48
2023-05-10T13:43:45.941Z,1003.52
2023-05-10T13:44:45.918Z,1003.47
2023-05-10T13:45:45.929Z,1003.41
2023-05-10T13:46:45.974Z,1003.47
2023-05-10T13:47:45.907Z,1003.45
2023-05-10T13:48:45.850Z,1003.47
2023-05-10T13:49:45.848Z,1003.52
2023-05-10T13:50:46.765Z,1003.46
2023-05-10T13:51:45.814Z,1003.46
2023-05-10T13:52:45.835Z,1003.43
2023-05-10T13:53:45.839Z,1003.40
2023-05-10T13:54:45.849Z,1003.40
2023-05-10T13:55:45.795Z,1003.39
2023-05-10T13:56:45.889Z,1003.41
2023-05-10T13:57:46.440Z,1003.40
2023-05-10T13:58:45.830Z,1003.42
2023-05-10T13:59:45.784Z,1003.43
2023-05-10T14:00:45.769Z,1003.49
2023-05-10T14:01:45.818Z,1003.42
2023-05-10T14:02:45.955Z,1003.37
2023-05-10T14:03:45.794Z,1003.43
2023-05-10T14:04:45.697Z,1003.37
2023-05-10T14:05:45.714Z,1003.52
2023-05-10T14:06:45.673Z,1003.42
2023-05-10T14:07:45.700Z,1003.43
2023-05-10T14:08:45.759Z,1003.58
2023-05-10T14:09:45.724Z,1003.52
2023-05-10T14:10:45.866Z,1003.52
2023-05-10T14:11:45.663Z,1003.49
2023-05-10T14:12:45.845Z,1003.54
2023-05-10T14:13:45.684Z,1003.52
2023-05-10T14:14:45.742Z,1003.55
2023-05-10T14:15:45.725Z,1003.54
2023-05-10T14:16:45.960Z,1003.52
2023-05-10T14:17:45.761Z,1003.52
2023-05-10T14:18:45.702Z,1003.51
2023-05-10T14:19:45.542Z,1003.54
2023-05-10T14:20:45.504Z,1003.50
2023-05-10T14:21:45.719Z,1003.47
2023-05-10T14:22:45.615Z,1003.53
2023-05-10T14:23:45.521Z,1003.50
2023-05-10T14:24:45.813Z,1003.44
2023-05-10T14:25:45.570Z,1003.45
2023-05-10T14:26:45.466Z,1003.46
2023-05-10T14:27:45.469Z,1003.43
2023-05-10T14:28:45.439Z,1003.39
2023-05-10T14:29:45.503Z,1003.42
2023-05-10T14:30:45.580Z,1003.40
2023-05-10T14:31:45.454Z,1003.43
2023-05-10T14:32:45.431Z,1003.44
2023-05-10T14:33:45.547Z,1003.46
2023-05-10T14:34:45.344Z,1003.45
2023-05-10T14:35:45.441Z,1003.47
2023-05-10T14:36:45.346Z,1003.49
2023-05-10T14:37:45.281Z,1003.48
2023-05-10T14:38:45.341Z,1003.53
2023-05-10T14:39:45.262Z,1003.48
2023-05-10T14:40:46.862Z,1003.49
2023-05-10T14:41:45.238Z,1003.54
2023-05-10T14:45:45.387Z,1003.50
2023-05-10T14:46:24.380Z,1003.58
2023-05-10T14:47:24.367Z,1003.58
2023-05-10T14:48:24.326Z,1003.53
2023-05-10T14:49:24.499Z,1003.50
2023-05-10T14:50:35.763Z,1003.49
2023-05-10T14:51:25.575Z,1003.49
2023-05-10T14:52:24.333Z,1003.54
2023-05-10T14:53:24.286Z,1003.49
2023-05-10T14:54:24.394Z,1003.52
2023-05-10T14:55:24.282Z,1003.54
2023-05-10T14:56:25.267Z,1003.54
2023-05-10T14:57:24.181Z,1003.60
2023-05-10T14:58:24.266Z,1003.53
2023-05-10T14:59:24.348Z,1003.52
2023-05-10T15:00:24.376Z,1003.54
2023-05-10T15:01:24.256Z,1003.58
2023-05-10T15:02:24.296Z,1003.56
2023-05-10T15:03:24.429Z,1003.50
2023-05-10T15:04:25.446Z,1003.54
2023-05-10T15:05:24.154Z,1003.57
2023-05-10T15:06:24.085Z,1003.53
2023-05-10T15:07:24.167Z,1003.51
2023-05-10T15:08:24.151Z,1003.54